Time;durP1;ratioP1;P1;durP2;ratioP2;P2;SDS_P1;SDS_P2;PMS_P1;PMS_P2;Temp;Humidity;BMP_temperature;BMP_pressure;BME280_temperature;BME280_humidity;BME280_pressure;Samples;Min_cycle;Max_cycle;Signal;HPM_P1;HPM_P2
2023/03/05 00:01:27;;;;;;;1.05;0.30;;;18.10;61.70;;;;;;5050480;28;20053;-74
2023/03/05 00:03:56;;;;;;;1.23;0.15;;;18.20;61.60;;;;;;5050185;28;20494;-74
2023/03/05 00:06:25;;;;;;;0.77;0.20;;;18.20;61.60;;;;;;5050026;28;20049;-74
2023/03/05 00:08:53;;;;;;;1.15;0.20;;;18.10;61.60;;;;;;5052745;28;20571;-74
2023/03/05 00:11:21;;;;;;;1.65;0.10;;;18.10;61.60;;;;;;5052876;28;20488;-74
2023/03/05 00:13:51;;;;;;;1.10;0.22;;;18.20;61.60;;;;;;5054010;28;20045;-74
2023/03/05 00:16:18;;;;;;;1.92;0.20;;;18.10;61.60;;;;;;5052539;28;20051;-74
2023/03/05 00:18:47;;;;;;;1.45;0.15;;;18.10;61.70;;;;;;5054042;28;20049;-74
2023/03/05 00:21:23;;;;;;;0.80;0.30;;;18.10;62.30;;;;;;5052727;28;20059;-74
2023/03/05 00:23:50;;;;;;;2.90;0.30;;;18.10;61.70;;;;;;5052435;28;20490;-74
2023/03/05 00:26:17;;;;;;;1.63;0.20;;;18.00;61.70;;;;;;5052276;28;20083;-74
2023/03/05 00:28:48;;;;;;;1.00;0.13;;;18.00;61.80;;;;;;5052618;28;20076;-74
2023/03/05 00:31:16;;;;;;;1.77;0.22;;;18.00;61.70;;;;;;5054006;28;20133;-74
2023/03/05 00:33:43;;;;;;;1.00;0.20;;;18.00;61.80;;;;;;5053657;28;20057;-74
2023/03/05 00:36:11;;;;;;;1.75;0.22;;;18.00;61.80;;;;;;5053760;28;20056;-74
2023/03/05 00:38:38;;;;;;;0.95;0.13;;;18.00;61.80;;;;;;5053473;28;20048;-74
2023/03/05 00:41:05;;;;;;;1.38;0.40;;;18.00;62.50;;;;;;5053571;28;20044;-74
2023/03/05 00:43:32;;;;;;;1.85;0.22;;;17.90;61.90;;;;;;5052077;28;20053;-74
2023/03/05 00:45:59;;;;;;;1.23;0.10;;;17.90;61.90;;;;;;5053424;28;20045;-74
2023/03/05 00:48:26;;;;;;;1.10;0.15;;;17.90;62.00;;;;;;5053581;28;20049;-74
2023/03/05 00:50:53;;;;;;;1.20;0.10;;;17.90;62.50;;;;;;5053610;28;20102;-74
2023/03/05 00:53:22;;;;;;;1.17;0.20;;;17.80;62.00;;;;;;5051971;28;20052;-74
2023/03/05 00:55:49;;;;;;;0.57;0.10;;;17.80;62.00;;;;;;5053134;28;20052;-74
2023/03/05 00:58:16;;;;;;;0.75;0.20;;;17.80;62.60;;;;;;5043923;28;20058;-74
2023/03/05 01:00:43;;;;;;;0.75;0.15;;;17.80;62.10;;;;;;5033476;28;20049;-74
2023/03/05 01:03:10;;;;;;;1.42;0.22;;;17.80;62.10;;;;;;5031715;28;20513;-74
2023/03/05 01:05:37;;;;;;;1.10;0.28;;;17.70;62.10;;;;;;5031711;28;20050;-74
2023/03/05 01:08:04;;;;;;;1.00;0.13;;;17.70;62.70;;;;;;5032907;28;20065;-74
2023/03/05 01:10:32;;;;;;;0.60;0.10;;;17.70;62.20;;;;;;5031981;28;20057;-74
2023/03/05 01:13:00;;;;;;;1.25;0.25;;;17.70;62.20;;;;;;5031649;28;20134;-74
2023/03/05 01:15:27;;;;;;;0.82;0.28;;;17.70;62.20;;;;;;5031696;28;20058;-74
2023/03/05 01:17:54;;;;;;;0.82;0.20;;;17.60;62.20;;;;;;5032785;28;20057;-74
2023/03/05 01:20:22;;;;;;;1.05;0.38;;;17.60;62.20;;;;;;5033008;28;20190;-74
2023/03/05 01:22:49;;;;;;;0.60;0.30;;;17.60;62.20;;;;;;5031594;28;20053;-74
2023/03/05 01:25:17;;;;;;;1.02;0.13;;;17.60;62.20;;;;;;5033036;28;20046;-74
2023/03/05 01:27:46;;;;;;;0.65;0.20;;;17.60;62.30;;;;;;5033100;28;20152;-74
2023/03/05 01:30:15;;;;;;;1.05;0.10;;;17.60;62.30;;;;;;5031963;28;20525;-74
2023/03/05 01:32:42;;;;;;;0.80;0.10;;;17.50;62.20;;;;;;5031562;28;20053;-74
2023/03/05 01:35:15;;;;;;;1.77;0.30;;;17.50;62.30;;;;;;5032734;28;20474;-74
2023/03/05 01:37:42;;;;;;;1.48;0.13;;;17.50;62.30;;;;;;5032656;28;20053;-74
2023/03/05 01:40:10;;;;;;;1.20;0.20;;;17.50;62.30;;;;;;5031617;28;20057;-74
2023/03/05 01:42:37;;;;;;;0.98;0.10;;;17.50;62.30;;;;;;5032450;28;20060;-74
2023/03/05 01:45:08;;;;;;;1.23;0.30;;;17.50;62.30;;;;;;5032857;28;20076;-74
2023/03/05 01:47:36;;;;;;;0.80;0.10;;;17.50;62.30;;;;;;5031560;28;20107;-74
2023/03/05 01:50:03;;;;;;;1.02;0.20;;;17.40;62.30;;;;;;5031418;28;20053;-74
2023/03/05 01:52:33;;;;;;;0.90;0.28;;;17.40;62.30;;;;;;5031307;28;20050;-74
2023/03/05 01:55:05;;;;;;;0.95;0.10;;;17.40;62.20;;;;;;5032475;28;20045;-74
2023/03/05 01:57:34;;;;;;;1.48;0.20;;;17.40;62.20;;;;;;5032130;28;20057;-74
2023/03/05 02:00:05;;;;;;;0.70;0.08;;;17.50;62.30;;;;;;5030732;28;20068;-74
2023/03/05 02:02:34;;;;;;;0.70;0.10;;;17.50;62.20;;;;;;5031982;28;20056;-74
2023/03/05 02:05:04;;;;;;;1.83;0.15;;;17.50;62.20;;;;;;5030765;28;20056;-74
2023/03/05 02:07:32;;;;;;;1.42;0.40;;;17.60;62.20;;;;;;5030889;28;20120;-74
2023/03/05 02:09:59;;;;;;;0.65;0.10;;;17.60;62.10;;;;;;5031759;28;20049;-74
2023/03/05 02:12:26;;;;;;;1.75;0.30;;;17.70;62.00;;;;;;5030589;28;20052;-74
2023/03/05 02:14:58;;;;;;;0.88;0.10;;;17.70;61.90;;;;;;5030403;28;20057;-74
2023/03/05 02:17:27;;;;;;;0.70;0.22;;;17.70;61.80;;;;;;5030299;28;20152;-74
2023/03/05 02:20:02;;;;;;;1.48;0.15;;;17.80;61.70;;;;;;5031923;28;20050;-74
2023/03/05 02:22:30;;;;;;;1.17;0.20;;;17.90;61.60;;;;;;5030223;28;20554;-74
2023/03/05 02:24:57;;;;;;;0.90;0.30;;;17.90;61.50;;;;;;5030570;28;20057;-74
2023/03/05 02:27:33;;;;;;;1.05;0.22;;;18.00;61.40;;;;;;5041222;28;20049;-74
2023/03/05 02:30:01;;;;;;;1.65;0.25;;;18.10;61.40;;;;;;5050322;28;20055;-74
2023/03/05 02:32:28;;;;;;;1.35;0.20;;;18.10;61.80;;;;;;5049622;28;20437;-74
2023/03/05 02:34:55;;;;;;;1.20;0.10;;;18.10;61.20;;;;;;5051254;28;20048;-74
2023/03/05 02:37:22;;;;;;;1.30;0.30;;;18.10;61.10;;;;;;5050199;28;20053;-74
2023/03/05 02:39:50;;;;;;;1.05;0.20;;;18.10;61.10;;;;;;5051123;28;20056;-74
2023/03/05 02:42:17;;;;;;;0.80;0.10;;;18.10;61.10;;;;;;5049925;28;20068;-74
2023/03/05 02:44:44;;;;;;;1.08;0.20;;;18.10;61.10;;;;;;5051220;28;20057;-74
2023/03/05 02:47:11;;;;;;;0.80;0.22;;;18.10;61.10;;;;;;5049909;28;20067;-74
2023/03/05 02:49:38;;;;;;;1.20;0.30;;;18.10;61.10;;;;;;5050198;28;20053;-74
2023/03/05 02:52:06;;;;;;;0.55;0.10;;;18.10;61.20;;;;;;5050152;28;20049;-74
2023/03/05 02:54:32;;;;;;;1.27;0.10;;;18.10;61.20;;;;;;5051296;28;20051;-74
2023/03/05 02:57:01;;;;;;;1.33;0.28;;;18.10;61.20;;;;;;5050126;28;20063;-74
2023/03/05 02:59:28;;;;;;;1.33;0.20;;;18.00;61.20;;;;;;5051199;28;20059;-74
2023/03/05 03:01:55;;;;;;;1.52;0.43;;;18.00;61.20;;;;;;5049977;28;20064;-74
2023/03/05 03:04:22;;;;;;;0.65;0.10;;;18.00;61.30;;;;;;5050076;28;20053;-74
2023/03/05 03:06:49;;;;;;;0.80;0.10;;;18.00;61.30;;;;;;5049988;28;20049;-74
2023/03/05 03:09:16;;;;;;;0.98;0.13;;;18.00;61.40;;;;;;5050010;28;20052;-74
2023/03/05 03:11:43;;;;;;;1.13;0.10;;;18.00;61.40;;;;;;5051046;28;20053;-74
2023/03/05 03:14:11;;;;;;;1.35;0.30;;;17.90;61.30;;;;;;5049614;28;20053;-74
2023/03/05 03:16:38;;;;;;;1.40;0.20;;;17.90;61.40;;;;;;5049334;28;20106;-74
2023/03/05 03:19:05;;;;;;;0.90;0.20;;;17.90;61.40;;;;;;5049363;28;20056;-74
2023/03/05 03:21:32;;;;;;;0.80;0.10;;;17.80;61.40;;;;;;5049445;28;20048;-74
2023/03/05 03:23:59;;;;;;;1.63;0.32;;;17.80;61.50;;;;;;5049293;28;20057;-74
2023/03/05 03:26:26;;;;;;;1.35;0.20;;;17.80;61.50;;;;;;5039795;28;20491;-74
2023/03/05 03:28:53;;;;;;;1.20;0.10;;;17.80;61.50;;;;;;5030894;28;20057;-74
2023/03/05 03:31:21;;;;;;;0.55;0.10;;;17.70;61.90;;;;;;5029683;28;20057;-74
2023/03/05 03:33:48;;;;;;;1.10;0.22;;;17.70;61.60;;;;;;5029654;28;20060;-74
2023/03/05 03:36:15;;;;;;;0.88;0.20;;;17.70;61.60;;;;;;5029275;28;20057;-74
2023/03/05 03:38:42;;;;;;;1.02;0.15;;;17.70;61.60;;;;;;5030227;28;20419;-74
2023/03/05 03:41:09;;;;;;;0.80;0.20;;;17.70;61.70;;;;;;5030601;28;20053;-74
2023/03/05 03:43:37;;;;;;;1.13;0.20;;;17.60;61.70;;;;;;5029090;28;20053;-74
2023/03/05 03:46:05;;;;;;;1.48;0.30;;;17.60;61.60;;;;;;5031264;28;20091;-74
2023/03/05 03:48:34;;;;;;;1.30;0.10;;;17.60;61.70;;;;;;5049340;28;20494;-74
2023/03/05 03:51:05;;;;;;;0.77;0.20;;;17.60;61.70;;;;;;5050403;28;20541;-74
2023/03/05 03:53:32;;;;;;;0.80;0.10;;;17.60;61.70;;;;;;5049192;28;20051;-74
2023/03/05 03:55:59;;;;;;;0.65;0.10;;;17.50;61.70;;;;;;5050080;28;20044;-74
2023/03/05 03:58:26;;;;;;;0.70;0.10;;;17.50;61.70;;;;;;5048855;28;20049;-74
2023/03/05 04:00:53;;;;;;;1.08;0.10;;;17.50;61.70;;;;;;5050009;28;20049;-74
2023/03/05 04:03:20;;;;;;;1.45;0.20;;;17.50;61.70;;;;;;5048775;28;20056;-74
2023/03/05 04:05:48;;;;;;;0.60;0.10;;;17.50;61.80;;;;;;5048904;28;20056;-74
2023/03/05 04:08:15;;;;;;;0.77;0.13;;;17.50;61.70;;;;;;5050148;28;20092;-74
2023/03/05 04:10:42;;;;;;;0.95;0.10;;;17.50;61.80;;;;;;5050104;28;20053;-74
2023/03/05 04:13:09;;;;;;;0.80;0.10;;;17.50;61.80;;;;;;5048346;28;20064;-75
2023/03/05 04:15:36;;;;;;;0.73;0.10;;;17.40;61.70;;;;;;5049872;28;20506;-74
2023/03/05 04:18:03;;;;;;;1.02;0.20;;;17.40;61.70;;;;;;5049690;28;20049;-74
2023/03/05 04:20:30;;;;;;;0.80;0.25;;;17.50;61.70;;;;;;5048453;28;20056;-74
2023/03/05 04:22:59;;;;;;;0.47;0.10;;;17.50;61.70;;;;;;5048418;28;20053;-74
2023/03/05 04:25:26;;;;;;;0.77;0.10;;;17.50;61.70;;;;;;5049822;28;20092;-74
2023/03/05 04:27:53;;;;;;;0.82;0.25;;;17.50;61.60;;;;;;5048504;28;20076;-74
2023/03/05 04:30:21;;;;;;;1.23;0.10;;;17.60;61.60;;;;;;5048529;28;20539;-74
2023/03/05 04:32:47;;;;;;;0.85;0.10;;;17.60;61.60;;;;;;5048251;28;20103;-74
2023/03/05 04:35:14;;;;;;;0.90;0.15;;;17.60;61.50;;;;;;5049722;28;20478;-74
2023/03/05 04:37:41;;;;;;;1.10;0.40;;;17.70;61.40;;;;;;5048228;28;20052;-74
2023/03/05 04:40:11;;;;;;;0.60;0.10;;;17.70;61.30;;;;;;5049908;28;20080;-74
2023/03/05 04:42:38;;;;;;;0.70;0.20;;;17.80;61.30;;;;;;5049232;28;20304;-74
2023/03/05 04:45:06;;;;;;;0.93;0.10;;;17.90;61.20;;;;;;5048526;28;20064;-74
2023/03/05 04:47:33;;;;;;;1.10;0.20;;;17.90;61.10;;;;;;5049821;28;20044;-74
2023/03/05 04:50:00;;;;;;;0.80;0.10;;;18.00;60.90;;;;;;5049520;28;20091;-74
2023/03/05 04:52:27;;;;;;;0.70;0.22;;;18.10;60.90;;;;;;5048346;28;20051;-74
2023/03/05 04:54:54;;;;;;;0.60;0.10;;;18.10;60.70;;;;;;5051427;28;20056;-74
2023/03/05 04:57:22;;;;;;;0.95;0.15;;;18.20;60.70;;;;;;5053275;28;20049;-74
2023/03/05 04:59:49;;;;;;;0.50;0.10;;;18.20;60.70;;;;;;5051984;28;20482;-74
2023/03/05 05:02:16;;;;;;;1.25;0.20;;;18.20;60.60;;;;;;5053052;28;20057;-74
2023/03/05 05:04:44;;;;;;;0.73;0.10;;;18.20;60.60;;;;;;5053256;28;20057;-74
2023/03/05 05:07:11;;;;;;;0.75;0.10;;;18.20;60.60;;;;;;5051885;28;20057;-74
2023/03/05 05:09:40;;;;;;;1.15;0.10;;;18.20;60.70;;;;;;5052905;28;20061;-74
2023/03/05 05:12:09;;;;;;;0.57;0.10;;;18.20;61.20;;;;;;5051720;28;20056;-74
2023/03/05 05:14:38;;;;;;;0.90;0.10;;;18.20;60.70;;;;;;5051856;28;20092;-74
2023/03/05 05:17:05;;;;;;;0.75;0.10;;;18.20;60.70;;;;;;5052728;28;20065;-75
2023/03/05 05:19:32;;;;;;;0.70;0.15;;;18.20;60.80;;;;;;5053005;28;20128;-74
2023/03/05 05:21:59;;;;;;;0.73;0.17;;;18.10;60.80;;;;;;5053361;28;20056;-74
2023/03/05 05:24:26;;;;;;;0.80;0.20;;;18.10;60.90;;;;;;5051826;28;20052;-74
2023/03/05 05:26:54;;;;;;;1.00;0.10;;;18.10;60.90;;;;;;5048986;28;20505;-74
2023/03/05 05:29:21;;;;;;;0.57;0.00;;;18.10;61.00;;;;;;5033605;28;20052;-74
2023/03/05 05:31:50;;;;;;;0.73;0.10;;;18.00;60.90;;;;;;5032221;28;20057;-74
2023/03/05 05:34:17;;;;;;;0.75;0.10;;;18.00;60.90;;;;;;5031785;28;20050;-74
2023/03/05 05:36:44;;;;;;;1.60;0.20;;;18.00;61.00;;;;;;5032731;28;20046;-74
2023/03/05 05:39:10;;;;;;;1.17;0.10;;;18.00;61.00;;;;;;5032417;28;20513;-74
2023/03/05 05:41:37;;;;;;;1.02;0.20;;;17.90;61.00;;;;;;5032609;28;20104;-74
2023/03/05 05:44:04;;;;;;;0.93;0.15;;;17.90;61.00;;;;;;5032170;28;20088;-74
2023/03/05 05:46:31;;;;;;;0.60;0.05;;;17.90;61.10;;;;;;5032251;28;20052;-74
2023/03/05 05:49:00;;;;;;;0.90;0.10;;;17.90;61.20;;;;;;5032639;28;20053;-74
2023/03/05 05:51:27;;;;;;;0.95;0.10;;;17.80;61.10;;;;;;5032202;28;20487;-74
2023/03/05 05:53:54;;;;;;;0.40;0.10;;;17.80;61.20;;;;;;5034786;28;20402;-74
2023/03/05 05:56:21;;;;;;;1.30;0.20;;;17.80;61.20;;;;;;5051070;28;20126;-74
2023/03/05 05:58:48;;;;;;;0.90;0.20;;;17.80;61.20;;;;;;5050968;28;20060;-74
2023/03/05 06:01:17;;;;;;;0.88;0.20;;;17.70;61.20;;;;;;5050994;28;20432;-74
2023/03/05 06:03:45;;;;;;;1.10;0.20;;;17.80;61.30;;;;;;5052117;28;20052;-74
2023/03/05 06:06:15;;;;;;;0.60;0.05;;;17.70;61.30;;;;;;5050980;28;20049;-74
2023/03/05 06:08:42;;;;;;;0.55;0.10;;;17.70;61.40;;;;;;5051906;28;20056;-75
2023/03/05 06:11:09;;;;;;;0.93;0.28;;;17.60;61.30;;;;;;5050472;28;20059;-75
2023/03/05 06:13:37;;;;;;;0.55;0.10;;;17.60;61.30;;;;;;5051502;28;20063;-75
2023/03/05 06:16:07;;;;;;;0.70;0.10;;;17.60;61.40;;;;;;5051880;28;20444;-74
2023/03/05 06:18:35;;;;;;;0.63;0.10;;;17.60;61.40;;;;;;5050048;28;20126;-74
2023/03/05 06:21:03;;;;;;;1.00;0.10;;;17.60;61.40;;;;;;5050487;28;20061;-75
2023/03/05 06:23:32;;;;;;;1.08;0.20;;;17.50;61.30;;;;;;5051714;28;20052;-75
2023/03/05 06:26:00;;;;;;;1.48;0.20;;;17.50;61.40;;;;;;5050235;28;20061;-75
2023/03/05 06:28:28;;;;;;;1.38;0.10;;;17.60;61.40;;;;;;5050338;28;20084;-75
2023/03/05 06:31:01;;;;;;;0.82;0.10;;;17.50;61.40;;;;;;5050376;28;20059;-75
2023/03/05 06:33:28;;;;;;;0.68;0.10;;;17.50;61.40;;;;;;5051536;28;20059;-75
2023/03/05 06:35:55;;;;;;;1.23;0.43;;;17.50;61.40;;;;;;5051483;28;20148;-75
2023/03/05 06:38:22;;;;;;;0.95;0.25;;;17.50;61.50;;;;;;5049859;28;20052;-75
2023/03/05 06:40:51;;;;;;;1.05;0.10;;;17.40;61.40;;;;;;5051520;28;20048;-75
2023/03/05 06:43:18;;;;;;;0.60;0.10;;;17.50;61.50;;;;;;5051046;28;20048;-75
2023/03/05 06:45:45;;;;;;;0.47;0.10;;;17.50;61.50;;;;;;5051030;28;20532;-75
2023/03/05 06:48:12;;;;;;;0.90;0.10;;;17.50;61.40;;;;;;5049878;28;20059;-75
2023/03/05 06:50:39;;;;;;;0.93;0.10;;;17.50;61.40;;;;;;5050055;28;20059;-75
2023/03/05 06:53:06;;;;;;;0.70;0.10;;;17.50;61.30;;;;;;5049856;28;20060;-75
2023/03/05 06:55:38;;;;;;;0.88;0.10;;;17.60;61.40;;;;;;5039821;28;20045;-75
2023/03/05 06:58:07;;;;;;;0.60;0.10;;;17.60;61.30;;;;;;5029945;28;20050;-75
2023/03/05 07:00:34;;;;;;;1.30;0.22;;;17.60;61.30;;;;;;5030752;28;20060;-74
2023/03/05 07:03:01;;;;;;;0.70;0.10;;;17.70;61.20;;;;;;5030849;28;20063;-75
2023/03/05 07:05:28;;;;;;;1.13;0.10;;;17.70;61.10;;;;;;5031031;28;20049;-75
2023/03/05 07:07:55;;;;;;;1.25;0.03;;;17.80;61.00;;;;;;5029558;28;20107;-75
2023/03/05 07:10:22;;;;;;;0.75;0.10;;;17.90;61.00;;;;;;5030760;28;20054;-75
2023/03/05 07:12:49;;;;;;;0.90;0.20;;;18.00;60.90;;;;;;5030499;28;20046;-75
2023/03/05 07:15:17;;;;;;;0.73;0.13;;;18.00;60.80;;;;;;5029246;28;20059;-75
2023/03/05 07:17:44;;;;;;;0.82;0.10;;;18.10;60.70;;;;;;5030433;28;20506;-75
2023/03/05 07:20:12;;;;;;;1.10;0.22;;;18.10;60.60;;;;;;5030518;28;20050;-75
2023/03/05 07:22:39;;;;;;;0.80;0.10;;;18.10;60.60;;;;;;5030823;28;20450;-75
2023/03/05 07:25:07;;;;;;;1.55;0.10;;;18.20;61.20;;;;;;5040367;28;20486;-75
2023/03/05 07:27:35;;;;;;;0.50;0.10;;;18.20;60.60;;;;;;5050274;28;20045;-75
2023/03/05 07:30:03;;;;;;;1.23;0.10;;;18.20;60.60;;;;;;5050419;28;20056;-75
2023/03/05 07:32:31;;;;;;;1.02;0.38;;;18.20;60.60;;;;;;5049202;28;20055;-75
2023/03/05 07:34:59;;;;;;;0.50;0.00;;;18.20;60.70;;;;;;5050258;28;20071;-75
2023/03/05 07:37:25;;;;;;;0.65;0.10;;;18.10;60.60;;;;;;5049142;28;20053;-75
2023/03/05 07:39:52;;;;;;;1.85;0.20;;;18.10;60.70;;;;;;5049087;28;20103;-75
2023/03/05 07:42:19;;;;;;;0.47;0.10;;;18.10;60.70;;;;;;5048601;28;20059;-75
2023/03/05 07:44:46;;;;;;;0.70;0.30;;;18.10;60.80;;;;;;5050033;28;20057;-75
2023/03/05 07:47:15;;;;;;;0.50;0.30;;;18.10;60.80;;;;;;5049018;28;20522;-75
2023/03/05 07:49:43;;;;;;;0.82;0.22;;;18.10;60.80;;;;;;5049078;28;20060;-74
2023/03/05 07:52:10;;;;;;;0.80;0.10;;;18.10;60.90;;;;;;5050224;28;20422;-75
2023/03/05 07:54:39;;;;;;;0.73;0.10;;;18.00;61.40;;;;;;5049008;28;20052;-75
2023/03/05 07:57:06;;;;;;;0.50;0.10;;;18.00;60.90;;;;;;5036640;28;20064;-75
2023/03/05 07:59:33;;;;;;;0.88;0.22;;;18.00;60.90;;;;;;5030370;28;20049;-75
2023/03/05 08:02:00;;;;;;;0.82;0.10;;;18.00;61.00;;;;;;5030063;28;20065;-75
2023/03/05 08:04:30;;;;;;;0.88;0.20;;;18.00;61.00;;;;;;5029974;28;20100;-75
2023/03/05 08:06:59;;;;;;;1.25;0.10;;;18.00;61.00;;;;;;5028617;28;20136;-75
2023/03/05 08:09:27;;;;;;;0.52;0.10;;;17.90;61.00;;;;;;5028914;28;20050;-75
2023/03/05 08:11:54;;;;;;;0.65;0.10;;;17.90;61.00;;;;;;5028936;28;20061;-75
2023/03/05 08:14:21;;;;;;;0.63;0.10;;;17.90;61.10;;;;;;5029847;28;20056;-75
2023/03/05 08:16:51;;;;;;;0.93;0.20;;;17.90;61.10;;;;;;5029584;28;20495;-74
2023/03/05 08:19:18;;;;;;;1.40;0.20;;;17.90;61.10;;;;;;5030317;28;20049;-75
2023/03/05 08:21:45;;;;;;;0.43;0.10;;;17.80;61.10;;;;;;5048673;28;20087;-75
2023/03/05 08:24:14;;;;;;;0.85;0.30;;;17.80;61.10;;;;;;5036057;28;20050;-75
2023/03/05 08:26:41;;;;;;;0.47;0.10;;;17.80;61.10;;;;;;5029904;28;20510;-75
2023/03/05 08:29:09;;;;;;;1.02;0.10;;;17.80;61.20;;;;;;5029838;28;20191;-75
2023/03/05 08:31:37;;;;;;;0.57;0.10;;;17.70;61.10;;;;;;5033971;28;20065;-75
2023/03/05 08:34:04;;;;;;;0.73;0.10;;;17.70;61.10;;;;;;5032616;28;20080;-75
2023/03/05 08:36:32;;;;;;;1.25;0.15;;;17.70;61.10;;;;;;5032387;28;20072;-75
2023/03/05 08:38:59;;;;;;;1.42;0.25;;;17.80;61.80;;;;;;5033457;28;20136;-75
2023/03/05 08:41:28;;;;;;;1.00;0.10;;;17.70;61.10;;;;;;5033434;28;20498;-75
2023/03/05 08:43:55;;;;;;;0.70;0.10;;;17.70;61.20;;;;;;5033099;28;20437;-75
2023/03/05 08:46:22;;;;;;;0.93;0.10;;;17.70;61.20;;;;;;5032202;28;20111;-75
2023/03/05 08:48:49;;;;;;;0.50;0.05;;;17.70;61.20;;;;;;5033535;28;20052;-75
2023/03/05 08:51:18;;;;;;;0.90;0.20;;;17.70;61.20;;;;;;5033578;28;20049;-75
2023/03/05 08:53:46;;;;;;;1.15;0.20;;;17.70;61.20;;;;;;5033357;28;20049;-75
2023/03/05 08:56:14;;;;;;;0.70;0.10;;;17.60;61.10;;;;;;5031835;28;20099;-75
2023/03/05 08:58:44;;;;;;;1.15;0.40;;;17.70;61.30;;;;;;5033571;28;20045;-75
2023/03/05 09:01:12;;;;;;;0.75;0.13;;;17.70;61.30;;;;;;5033299;28;20063;-75
2023/03/05 09:03:40;;;;;;;0.50;0.20;;;17.60;61.20;;;;;;5031971;28;20060;-75
2023/03/05 09:06:09;;;;;;;1.67;0.20;;;17.70;61.20;;;;;;5032939;28;20076;-74
2023/03/05 09:08:36;;;;;;;;;;;17.60;61.20;;;;;;5033599;28;20475;-75
2023/03/05 09:11:04;;;;;;;1.25;0.22;;;17.70;61.20;;;;;;5031556;28;19979;-75
2023/03/05 09:13:32;;;;;;;1.50;0.28;;;17.60;61.20;;;;;;5032719;28;20053;-75
2023/03/05 09:16:03;;;;;;;0.73;0.13;;;17.60;61.20;;;;;;5033016;28;20058;-75
2023/03/05 09:18:30;;;;;;;0.93;0.10;;;17.60;61.20;;;;;;5030885;28;20057;-74
2023/03/05 09:20:58;;;;;;;1.38;0.17;;;17.60;61.30;;;;;;5032954;28;20530;-75
2023/03/05 09:23:25;;;;;;;0.82;0.10;;;17.60;61.30;;;;;;5032609;28;20103;-75
2023/03/05 09:25:52;;;;;;;0.77;0.15;;;17.60;61.20;;;;;;5031517;28;20057;-75
2023/03/05 09:28:19;;;;;;;0.70;0.10;;;17.60;61.20;;;;;;5032492;28;20069;-75
2023/03/05 09:30:46;;;;;;;0.90;0.17;;;17.60;61.80;;;;;;5032941;28;20050;-75
2023/03/05 09:33:14;;;;;;;1.38;0.20;;;17.60;61.20;;;;;;5031678;28;20061;-75
2023/03/05 09:35:41;;;;;;;1.17;0.20;;;17.60;61.20;;;;;;5031077;28;20129;-75
2023/03/05 09:38:08;;;;;;;1.10;0.05;;;17.60;61.30;;;;;;5032532;28;20065;-75
2023/03/05 09:40:44;;;;;;;0.65;0.10;;;17.60;61.20;;;;;;5031043;28;20060;-75
2023/03/05 09:43:19;;;;;;;0.50;0.03;;;17.60;61.20;;;;;;5031181;28;20137;-75
2023/03/05 09:46:01;;;;;;;0.45;0.10;;;17.60;61.20;;;;;;5032434;28;20053;-75
2023/03/05 09:48:45;;;;;;;0.73;0.10;;;17.60;61.30;;;;;;5030919;28;20071;-75
2023/03/05 09:51:17;;;;;;;0.93;0.10;;;17.60;61.30;;;;;;5030997;28;20058;-75
2023/03/05 09:53:47;;;;;;;1.27;0.10;;;17.60;61.20;;;;;;5032274;28;20402;-75
2023/03/05 09:56:19;;;;;;;1.17;0.40;;;17.60;61.10;;;;;;5030938;28;20045;-75
2023/03/05 09:58:49;;;;;;;1.23;0.10;;;17.60;61.20;;;;;;5030909;28;20045;-74
2023/03/05 10:01:19;;;;;;;0.68;0.25;;;17.60;61.10;;;;;;5032417;28;20406;-75
2023/03/05 10:03:56;;;;;;;0.80;0.15;;;17.60;61.20;;;;;;5031956;28;20076;-75
2023/03/05 10:06:26;;;;;;;0.80;0.10;;;17.60;61.10;;;;;;5030573;28;20061;-75
2023/03/05 10:08:55;;;;;;;;;;;17.60;61.10;;;;;;5031165;28;20057;-75
2023/03/05 10:11:40;;;;;;;1.02;0.00;;;17.60;61.10;;;;;;5030657;28;20593;-75
2023/03/05 10:14:13;;;;;;;0.77;0.10;;;17.60;61.20;;;;;;5030453;28;20064;-75
2023/03/05 10:17:14;;;;;;;0.77;0.10;;;17.60;61.20;;;;;;5030597;28;20402;-75
2023/03/05 10:20:15;;;;;;;0.70;0.10;;;17.60;61.10;;;;;;4995475;28;20060;-75
2023/03/05 10:23:00;;;;;;;0.95;0.10;;;17.60;61.10;;;;;;5030635;28;20037;-75
2023/03/05 10:25:46;;;;;;;0.47;0.13;;;17.60;61.10;;;;;;5040852;28;20056;-74
2023/03/05 10:28:18;;;;;;;0.75;0.15;;;17.60;61.10;;;;;;5050462;28;20057;-75
2023/03/05 10:31:06;;;;;;;1.13;0.10;;;17.60;61.20;;;;;;5051431;28;20144;-75
2023/03/05 10:33:40;;;;;;;0.60;0.10;;;17.60;61.10;;;;;;5049985;28;20044;-75
2023/03/05 10:36:29;;;;;;;0.73;0.10;;;17.60;61.10;;;;;;5051442;28;20060;-75
2023/03/05 10:39:24;;;;;;;0.70;0.10;;;17.60;61.10;;;;;;5049827;28;20060;-75
2023/03/05 10:42:01;;;;;;;1.20;0.20;;;17.60;61.10;;;;;;5050159;28;20040;-75
2023/03/05 10:44:36;;;;;;;0.50;0.08;;;17.60;61.10;;;;;;5050989;28;20060;-75
2023/03/05 10:47:03;;;;;;;1.42;0.22;;;17.60;61.10;;;;;;5049911;28;20064;-75
2023/03/05 10:49:36;;;;;;;1.48;0.10;;;17.60;61.10;;;;;;5050146;28;20048;-75
2023/03/05 10:52:09;;;;;;;0.50;0.20;;;17.60;61.10;;;;;;5053123;28;20490;-75
2023/03/05 10:54:40;;;;;;;1.13;0.10;;;17.60;61.10;;;;;;5048577;28;20053;-74
2023/03/05 10:57:18;;;;;;;1.75;0.10;;;17.60;61.10;;;;;;5031383;28;20085;-74
2023/03/05 10:59:50;;;;;;;0.77;0.10;;;17.60;61.10;;;;;;5035075;28;20057;-75
2023/03/05 11:02:18;;;;;;;0.70;0.10;;;17.60;61.10;;;;;;5031543;28;20526;-74
2023/03/05 11:04:46;;;;;;;0.80;0.10;;;17.60;61.20;;;;;;5029859;28;20057;-74
2023/03/05 11:07:34;;;;;;;0.85;0.22;;;17.70;61.20;;;;;;5030904;28;20522;-74
2023/03/05 11:10:15;;;;;;;0.90;0.20;;;17.70;61.20;;;;;;5030970;28;20111;-75
2023/03/05 11:12:42;;;;;;;0.95;0.10;;;17.70;61.20;;;;;;5029423;28;20049;-74
2023/03/05 11:15:25;;;;;;;0.85;0.10;;;17.70;61.20;;;;;;5029483;28;20064;-75
2023/03/05 11:18:07;;;;;;;1.33;0.13;;;17.70;61.20;;;;;;5029464;28;20123;-75
2023/03/05 11:20:35;;;;;;;1.13;0.10;;;17.70;61.10;;;;;;5029346;28;20073;-75
2023/03/05 11:23:08;;;;;;;0.52;0.20;;;17.80;61.20;;;;;;5029095;28;20136;-75
2023/03/05 11:25:49;;;;;;;1.20;0.10;;;17.70;61.10;;;;;;5048597;28;20063;-75
2023/03/05 11:28:18;;;;;;;0.40;0.10;;;17.70;61.10;;;;;;5050351;28;20433;-75
2023/03/05 11:30:56;;;;;;;1.08;0.10;;;17.70;61.10;;;;;;5050535;28;20045;-74
2023/03/05 11:33:23;;;;;;;0.73;0.00;;;17.80;61.20;;;;;;5049213;28;20053;-74
2023/03/05 11:35:52;;;;;;;1.38;0.20;;;17.70;61.10;;;;;;5049052;28;20045;-75
2023/03/05 11:38:23;;;;;;;0.68;0.10;;;17.80;61.10;;;;;;5049514;28;20048;-74
2023/03/05 11:40:52;;;;;;;0.50;0.10;;;17.70;61.10;;;;;;5049186;28;20506;-75
2023/03/05 11:43:21;;;;;;;0.98;0.40;;;17.80;61.10;;;;;;5050066;28;20118;-74
2023/03/05 11:45:50;;;;;;;1.20;0.20;;;17.70;61.10;;;;;;5050274;28;20055;-75
2023/03/05 11:48:21;;;;;;;0.98;0.20;;;17.80;61.10;;;;;;5050096;28;20493;-75
2023/03/05 11:50:52;;;;;;;1.77;0.10;;;17.80;61.10;;;;;;5050111;28;20490;-75
2023/03/05 11:53:27;;;;;;;0.32;0.00;;;17.80;61.10;;;;;;5048977;28;20052;-75
2023/03/05 11:55:59;;;;;;;0.95;0.10;;;17.80;61.10;;;;;;5029127;28;20063;-75
2023/03/05 11:58:35;;;;;;;0.80;0.10;;;17.80;61.10;;;;;;5029031;28;20521;-75
2023/03/05 12:01:06;;;;;;;0.65;0.08;;;17.80;61.00;;;;;;5030165;28;20499;-75
2023/03/05 12:03:35;;;;;;;1.15;0.20;;;17.80;61.00;;;;;;5028698;28;20059;-74
2023/03/05 12:06:09;;;;;;;0.77;0.10;;;17.80;61.00;;;;;;5032897;28;20057;-75
2023/03/05 12:08:42;;;;;;;0.90;0.20;;;17.80;61.60;;;;;;5034578;28;20057;-75
2023/03/05 12:11:15;;;;;;;2.00;0.30;;;17.80;61.00;;;;;;5032951;28;20219;-75
2023/03/05 12:13:46;;;;;;;0.60;0.10;;;17.80;61.00;;;;;;5034145;28;20080;-75
2023/03/05 12:16:25;;;;;;;0.73;0.10;;;17.80;61.00;;;;;;5032654;28;20045;-75
2023/03/05 12:19:00;;;;;;;0.73;0.10;;;17.90;61.00;;;;;;5032349;28;20093;-75
2023/03/05 12:21:33;;;;;;;0.82;0.13;;;17.90;61.00;;;;;;5033976;28;20045;-75
2023/03/05 12:24:04;;;;;;;0.88;0.10;;;17.90;61.00;;;;;;5041146;28;20487;-75
2023/03/05 12:27:08;;;;;;;1.13;0.17;;;17.90;61.00;;;;;;5032567;28;20569;-74
2023/03/05 12:29:44;;;;;;;0.43;0.00;;;17.90;60.90;;;;;;4956410;28;20059;-74
2023/03/05 12:32:59;;;;;;;0.93;0.30;;;17.90;60.90;;;;;;4956337;28;20102;-75
2023/03/05 12:35:29;;;;;;;0.63;0.15;;;17.90;60.90;;;;;;5021746;28;20061;-74
2023/03/05 12:38:17;;;;;;;1.17;0.32;;;17.90;60.90;;;;;;5032198;28;20060;-75
2023/03/05 12:40:45;;;;;;;1.02;0.10;;;17.90;60.90;;;;;;5032519;28;20053;-75
2023/03/05 12:43:30;;;;;;;0.80;0.10;;;17.90;60.90;;;;;;5032266;28;20045;-75
2023/03/05 12:46:22;;;;;;;0.73;0.13;;;17.90;60.90;;;;;;5048847;28;20057;-75
2023/03/05 12:48:49;;;;;;;1.77;0.10;;;17.90;60.90;;;;;;5031946;28;20049;-75
2023/03/05 12:51:34;;;;;;;0.55;0.13;;;17.90;60.90;;;;;;5031920;28;20045;-75
2023/03/05 12:54:28;;;;;;;1.55;0.17;;;17.90;60.90;;;;;;5046871;28;20537;-75
2023/03/05 12:56:58;;;;;;;1.95;0.30;;;17.90;60.90;;;;;;5049201;28;20093;-75
2023/03/05 12:59:32;;;;;;;1.98;0.38;;;17.90;60.90;;;;;;5053300;28;20045;-75
2023/03/05 13:02:02;;;;;;;0.55;0.13;;;17.90;60.80;;;;;;5051976;28;20079;-75